メインページ
METAR-TAF:

METAR-TAF

空港 :

カポレイ, ハワイ州, アメリカ合衆国

緯度: 21-18-30N, 経度: 158-04-05W, 海抜: 10m

現時点の気象観測

当レポートは1時間11分前の00:53(UTC)に作成
東/北東の風 12kt、最大19ktの突風を伴う
気温 27°C
湿度 54%
気圧 1019 hPa
視程: 16.1km
高度4200ftの雲はほとんどない

METAR: PHJR 100053Z 06012G19KT 10SM FEW042 27/17 A3010 RMK AO2 SLP199 T02670167

時間: 16:04 (02:04 UTC)

予報

当レポートは2時間29分前の23:35(UTC)に作成
予報は10日の 00時(UTC)から 10日の 24時(UTC)まで有効
東/北東の風 12kt、最大19ktの突風を伴う
視程: 10km
高度4000ftの雲はほとんどない
10日の 0600時(UTC)から
北東の風 9kt
視程: 10km
高度2500ftの雲はほとんどない
高度4000ftの雲はほとんどない
10日の 2100時(UTC)から
東/北東の風 10kt、最大19ktの突風を伴う
視程: 10km
高度3500ftの雲はほとんどない

TAF: PHJR 092335Z 1000/1024 06012G19KT P6SM FEW040 FM100600 05009KT P6SM FEW025 FEW040 FM102100 06010G19KT P6SM FEW035

4,000以上の空港の気象観測と天気予報(METAR報とTAF報)

利用可能な観測所は地図上に黄色い丸と赤い丸で示す。

丸の上にカーソルを重ねると観測所名を参照できる。

次にクリックすると気象観測と天気予報を参照できる。

マップの切り替え:黒色「×」印の緑ボタンをクリックして拡大、「-」印の緑ボタンをクリックして縮小、緑色の三角印をクリックして隣りの地図に切り替え


METAR-TAF: